Time;durP1;ratioP1;P1;durP2;ratioP2;P2;SDS_P1;SDS_P2;PMS_P1;PMS_P2;Temp;Humidity;BMP_temperature;BMP_pressure;BME280_temperature;BME280_humidity;BME280_pressure;Samples;Min_cycle;Max_cycle;Signal;HPM_P1;HPM_P2
2022/05/31 00:02:23;;;;;;;382.50;364.70;;;11.50;99.90;;;11.23;88.06;99773.25;5047855;28;20203;-77
2022/05/31 00:04:52;;;;;;;390.77;371.65;;;11.40;99.90;;;11.32;88.41;99793.50;5009934;28;20572;-77
2022/05/31 00:07:20;;;;;;;374.55;356.98;;;11.40;99.90;;;11.19;88.14;99778.56;5038758;28;20202;-77
2022/05/31 00:09:48;;;;;;;361.50;344.40;;;11.40;99.90;;;11.14;88.00;99767.09;5043894;28;20211;-77
2022/05/31 00:12:16;;;;;;;356.17;339.88;;;11.20;99.90;;;11.22;88.26;99776.78;5036168;28;20219;-78
2022/05/31 00:14:45;;;;;;;352.13;335.85;;;11.20;99.90;;;11.16;88.71;99783.84;5035835;28;20251;-77
2022/05/31 00:17:13;;;;;;;352.85;336.25;;;11.20;99.90;;;11.11;88.57;99789.16;5038095;28;20202;-78
2022/05/31 00:19:41;;;;;;;342.10;326.58;;;11.20;99.90;;;11.11;88.63;99794.47;5029862;28;20206;-77
2022/05/31 00:22:16;;;;;;;337.48;322.20;;;11.20;99.90;;;11.05;88.81;99796.25;5033026;28;20207;-77
2022/05/31 00:24:45;;;;;;;333.92;318.40;;;11.20;99.90;;;11.01;89.09;99802.44;5044353;28;20670;-77
2022/05/31 00:27:18;;;;;;;347.92;332.00;;;11.20;99.90;;;10.94;88.97;99801.56;5036136;28;20198;-77
2022/05/31 00:29:47;;;;;;;326.65;311.95;;;11.10;99.90;;;10.92;89.32;99811.28;5042007;28;20211;-79
2022/05/31 00:32:21;;;;;;;330.75;315.88;;;11.10;99.90;;;10.93;90.67;99820.97;5032362;28;20234;-77
2022/05/31 00:34:52;;;;;;;328.80;313.85;;;11.10;99.90;;;10.94;90.19;99838.59;5030218;28;20320;-77
2022/05/31 00:37:21;;;;;;;323.65;309.02;;;11.10;99.90;;;10.85;90.78;99831.56;5033752;28;20204;-77
2022/05/31 00:39:49;;;;;;;329.17;313.70;;;11.10;99.90;;;10.87;90.85;99836.84;5026801;28;20217;-77
2022/05/31 00:42:21;;;;;;;324.10;308.88;;;11.10;99.90;;;10.86;90.54;99840.38;5042807;28;20683;-77
2022/05/31 00:44:50;;;;;;;337.05;320.85;;;11.00;99.90;;;10.91;90.67;99857.13;5043636;28;20235;-77
2022/05/31 00:47:26;;;;;;;332.58;317.00;;;11.00;99.90;;;10.93;90.65;99871.22;5045761;28;20230;-79
2022/05/31 00:50:08;;;;;;;322.95;307.73;;;11.10;99.90;;;10.88;90.44;99868.59;5025865;28;20225;-77
2022/05/31 00:52:46;;;;;;;332.67;316.92;;;11.10;99.90;;;10.84;90.05;99861.53;5045112;28;20218;-77
2022/05/31 00:55:15;;;;;;;329.95;314.50;;;11.10;99.90;;;10.83;90.67;99864.19;5026699;28;20211;-79
2022/05/31 00:58:17;;;;;;;323.67;308.88;;;11.00;99.90;;;10.72;90.66;99869.50;4999263;28;20199;-77
2022/05/31 01:00:45;;;;;;;331.05;314.85;;;11.00;99.90;;;10.71;90.49;99870.38;4999858;28;20218;-77
2022/05/31 01:03:18;;;;;;;324.98;309.92;;;11.00;99.90;;;10.78;90.22;99879.19;5015148;28;20730;-77
2022/05/31 01:05:46;;;;;;;324.30;308.65;;;11.00;99.90;;;10.66;90.18;99858.91;5029449;28;20218;-77
2022/05/31 01:08:15;;;;;;;321.10;305.92;;;10.80;99.90;;;10.70;90.07;99865.09;5048077;28;20207;-76
2022/05/31 01:11:03;;;;;;;324.95;309.30;;;10.80;99.90;;;10.76;90.40;99884.47;5037161;28;20210;-78
2022/05/31 01:13:52;;;;;;;320.50;305.70;;;10.80;99.90;;;10.69;89.61;99874.78;5034841;28;20234;-77
2022/05/31 01:17:02;;;;;;;327.73;311.98;;;10.70;99.90;;;10.83;89.20;99880.06;5014762;28;20699;-77
2022/05/31 01:20:19;;;;;;;325.58;309.38;;;10.70;99.90;;;10.69;89.52;99885.34;5046795;28;20206;-77
2022/05/31 01:23:09;;;;;;;320.95;305.25;;;10.70;99.90;;;10.70;90.17;99895.06;5046482;28;20576;-77
2022/05/31 01:26:17;;;;;;;315.48;300.70;;;10.70;99.90;;;10.55;89.98;99885.34;5033453;28;20291;-77
2022/05/31 01:29:00;;;;;;;308.77;294.13;;;10.70;99.90;;;10.65;90.22;99903.88;5054719;28;20202;-77
2022/05/31 01:31:33;;;;;;;325.33;308.67;;;10.60;99.90;;;10.57;90.18;99898.56;5039171;28;20209;-78
2022/05/31 01:34:10;;;;;;;303.33;289.33;;;10.60;99.90;;;10.68;90.04;99901.22;5052527;28;20246;-77
2022/05/31 01:36:51;;;;;;;315.70;300.50;;;10.50;99.90;;;10.57;89.95;99914.44;5041180;28;20208;-79
2022/05/31 01:39:46;;;;;;;319.58;303.60;;;10.50;99.90;;;10.37;91.65;99902.94;5031406;28;20215;-77
2022/05/31 01:42:34;;;;;;;313.65;298.30;;;10.50;99.90;;;10.39;92.23;99915.28;5023570;28;20199;-77
2022/05/31 01:45:16;;;;;;;323.88;307.17;;;10.50;99.90;;;10.36;91.24;99915.28;5030538;28;20222;-77
2022/05/31 01:47:44;;;;;;;335.77;316.80;;;10.40;99.90;;;10.32;91.54;99907.34;5034587;28;20214;-81
2022/05/31 01:50:16;;;;;;;317.52;302.15;;;10.30;99.90;;;10.31;91.54;99918.78;5030959;28;20675;-77
2022/05/31 01:52:47;;;;;;;323.95;307.05;;;10.30;99.90;;;10.31;91.58;99922.31;5057768;28;20214;-77
2022/05/31 01:55:16;;;;;;;316.27;299.85;;;10.30;99.90;;;10.22;91.77;99917.00;5017782;28;20237;-77
2022/05/31 01:57:57;;;;;;;318.50;302.42;;;10.30;99.90;;;10.34;91.66;99935.53;5024895;28;20195;-77
2022/05/31 02:00:26;;;;;;;309.48;293.90;;;10.30;99.90;;;10.24;92.12;99939.03;5017107;28;20725;-78
2022/05/31 02:02:58;;;;;;;316.35;300.33;;;10.20;99.90;;;10.17;92.09;99934.56;5028068;28;20219;-77
2022/05/31 02:05:27;;;;;;;304.05;289.08;;;10.20;99.90;;;10.25;92.41;99946.97;5031237;28;20211;-77
2022/05/31 02:07:58;;;;;;;306.48;291.13;;;10.20;99.90;;;10.23;92.21;99951.38;5041522;28;20203;-77
2022/05/31 02:10:27;;;;;;;314.10;298.25;;;10.20;99.90;;;10.09;92.89;99938.94;5029493;28;20213;-78
2022/05/31 02:12:56;;;;;;;314.35;298.60;;;10.10;99.90;;;10.12;93.26;99952.16;5042706;28;20574;-78
2022/05/31 02:15:24;;;;;;;306.15;291.05;;;10.20;99.90;;;10.10;92.60;99954.81;5053447;28;20234;-79
2022/05/31 02:18:16;;;;;;;307.73;292.25;;;10.10;99.90;;;10.04;92.73;99956.56;5028874;28;20207;-78
2022/05/31 02:21:04;;;;;;;311.40;295.23;;;10.10;99.90;;;10.00;92.98;99945.09;5018607;28;20230;-80
2022/05/31 02:23:32;;;;;;;310.25;294.80;;;10.10;99.90;;;10.07;92.61;99956.56;5036847;28;20230;-80
2022/05/31 02:26:00;;;;;;;311.73;295.90;;;10.10;99.90;;;10.02;92.69;99960.94;5057181;28;20592;-78
2022/05/31 02:28:29;;;;;;;310.77;295.08;;;10.10;99.90;;;10.03;92.61;99966.22;5031721;28;20206;-78
2022/05/31 02:30:57;;;;;;;315.83;299.60;;;10.10;99.90;;;10.02;93.74;99982.06;5044026;28;20226;-78
2022/05/31 02:33:25;;;;;;;309.65;293.63;;;10.10;99.90;;;9.92;94.03;99975.88;5050705;28;20227;-78
2022/05/31 02:35:53;;;;;;;301.40;286.15;;;10.00;99.90;;;9.91;93.42;99968.84;5045552;28;20234;-78
2022/05/31 02:38:21;;;;;;;310.27;293.67;;;10.00;99.90;;;9.87;93.17;99965.28;5030025;28;20664;-79
2022/05/31 02:40:49;;;;;;;311.98;295.35;;;9.90;99.90;;;9.90;94.70;99990.84;5032662;28;20221;-78
2022/05/31 02:43:17;;;;;;;306.05;290.10;;;9.90;99.90;;;9.84;94.38;99983.75;5027713;28;20229;-78
2022/05/31 02:45:45;;;;;;;302.70;287.73;;;10.00;99.90;;;9.75;94.57;99981.09;5033621;28;20565;-77
2022/05/31 02:48:13;;;;;;;311.70;294.77;;;9.90;99.90;;;9.76;95.03;99996.06;5030064;28;20204;-78
2022/05/31 02:50:41;;;;;;;304.40;288.55;;;9.90;99.90;;;9.75;94.50;99994.28;5048645;28;20218;-78
2022/05/31 02:53:09;;;;;;;311.90;295.60;;;9.80;99.90;;;9.76;94.27;99996.06;5034073;28;20234;-77
2022/05/31 02:55:38;;;;;;;311.55;294.60;;;9.80;99.90;;;9.81;93.85;99998.72;5015638;28;20225;-77
2022/05/31 02:58:26;;;;;;;315.42;298.00;;;9.80;99.90;;;9.71;94.16;99992.50;5044873;28;20203;-77
2022/05/31 03:01:33;;;;;;;297.80;281.75;;;9.70;99.90;;;9.76;94.87;100003.09;5042086;28;20206;-77
2022/05/31 03:04:20;;;;;;;288.27;272.95;;;9.70;99.90;;;9.58;95.16;99994.19;5050895;28;20229;-78
2022/05/31 03:07:09;;;;;;;296.38;279.70;;;9.70;99.90;;;9.47;95.35;99984.44;5045012;28;20210;-78
2022/05/31 03:09:52;;;;;;;286.77;271.40;;;9.60;99.90;;;9.28;96.92;99983.44;5028096;28;20214;-77
2022/05/31 03:12:24;;;;;;;299.85;283.13;;;9.40;99.90;;;9.32;97.27;99982.59;5047163;28;20202;-78
2022/05/31 03:15:04;;;;;;;292.27;276.35;;;9.30;99.90;;;9.19;97.92;99986.00;5030785;28;20242;-77
2022/05/31 03:17:44;;;;;;;282.02;266.33;;;9.30;99.90;;;9.12;98.30;99992.13;5026128;28;20203;-77
2022/05/31 03:20:30;;;;;;;284.10;268.40;;;9.30;99.90;;;9.17;99.48;100020.28;5044052;28;20206;-77
2022/05/31 03:23:06;;;;;;;286.42;270.20;;;9.20;99.90;;;9.30;99.57;100047.66;5029510;28;20200;-78
2022/05/31 03:25:34;;;;;;;283.85;268.23;;;;;;;9.32;100.00;100056.47;5030621;28;20222;-77
2022/05/31 03:28:05;;;;;;;310.10;294.00;;;9.40;99.90;;;9.44;98.55;100060.97;5038098;28;20203;-77
2022/05/31 03:30:36;;;;;;;286.65;271.20;;;9.40;99.90;;;9.33;98.28;100050.31;5036746;28;20206;-77
2022/05/31 03:33:08;;;;;;;307.20;290.23;;;9.40;99.90;;;9.36;98.26;100046.81;5034042;28;20227;-76
2022/05/31 03:35:37;;;;;;;275.83;261.05;;;9.40;99.90;;;9.52;97.33;100067.19;5062708;28;20235;-78
2022/05/31 03:38:13;;;;;;;302.52;285.83;;;9.40;99.90;;;9.40;97.25;100053.88;5024674;28;20207;-77
2022/05/31 03:40:57;;;;;;;280.65;265.85;;;9.50;99.90;;;9.50;97.48;100061.00;5042478;28;20568;-77
2022/05/31 03:43:33;;;;;;;271.05;257.20;;;9.50;99.90;;;9.47;97.63;100069.78;5047204;28;20257;-77
2022/05/31 03:46:19;;;;;;;280.77;266.20;;;9.50;99.90;;;9.55;96.97;100072.47;5037756;28;20217;-77
2022/05/31 03:49:07;;;;;;;279.63;264.60;;;9.50;99.90;;;9.59;96.79;100075.16;5038080;28;20211;-76
2022/05/31 03:51:49;;;;;;;298.58;282.08;;;9.60;99.90;;;9.54;96.93;100068.97;5043051;28;20195;-77
2022/05/31 03:54:30;;;;;;;278.10;263.75;;;9.60;99.90;;;9.68;96.67;100076.09;5057351;28;20230;-77
2022/05/31 03:57:20;;;;;;;290.70;274.73;;;9.50;99.90;;;9.65;96.02;100070.78;5005719;28;20240;-77
2022/05/31 03:59:58;;;;;;;274.77;260.27;;;9.60;99.90;;;9.63;96.01;100065.50;5038302;28;20199;-77
2022/05/31 04:02:45;;;;;;;270.42;256.25;;;9.60;99.90;;;9.63;96.68;100065.50;5047381;28;20215;-77
2022/05/31 04:05:16;;;;;;;283.55;268.27;;;;;;;9.61;96.70;100075.16;5035077;28;20213;-77
2022/05/31 04:07:44;;;;;;;279.60;264.65;;;9.60;99.90;;;9.69;96.20;100081.38;5034753;28;20205;-77
2022/05/31 04:10:12;;;;;;;282.55;267.67;;;9.60;99.90;;;9.72;95.48;100083.16;5018441;28;20221;-77
2022/05/31 04:12:41;;;;;;;278.83;264.23;;;9.60;99.90;;;9.77;96.31;100102.56;5018258;28;20214;-77
2022/05/31 04:15:33;;;;;;;283.73;268.48;;;9.70;99.90;;;9.88;96.05;100104.41;5019093;28;20230;-77
2022/05/31 04:18:04;;;;;;;292.77;276.52;;;9.70;99.90;;;9.84;96.59;100109.66;5034063;28;20210;-79
2022/05/31 04:20:37;;;;;;;291.10;275.77;;;9.70;99.90;;;9.85;95.92;100107.00;5034047;28;20198;-77
2022/05/31 04:26:31;;;;;;;267.85;253.57;;;9.80;99.90;;;10.01;96.24;100129.13;5047734;28;20201;-77
2022/05/31 04:29:25;;;;;;;283.08;267.58;;;9.80;99.90;;;10.12;95.76;100147.69;5018318;28;20211;-78
2022/05/31 04:32:20;;;;;;;279.95;265.08;;;9.90;99.90;;;10.20;95.53;100148.66;5035580;28;20204;-78
2022/05/31 04:34:52;;;;;;;295.77;279.75;;;10.00;99.90;;;10.27;95.15;100145.19;5050471;28;20231;-79
2022/05/31 04:37:21;;;;;;;293.48;278.00;;;10.00;99.90;;;10.32;94.09;100137.28;5034313;28;20203;-81
2022/05/31 04:39:55;;;;;;;301.15;284.98;;;10.10;99.90;;;10.39;93.29;100133.78;5053764;28;20217;-78
2022/05/31 04:42:42;;;;;;;308.17;291.48;;;10.10;99.90;;;10.44;93.27;100134.72;5046235;28;20202;-79
2022/05/31 04:45:28;;;;;;;309.70;292.75;;;10.20;99.90;;;10.48;93.82;100133.84;5040759;28;20198;-80
2022/05/31 04:47:59;;;;;;;318.50;300.67;;;10.20;99.90;;;10.50;94.21;100148.84;5041671;28;20217;-79
2022/05/31 04:50:28;;;;;;;320.25;303.20;;;10.30;99.90;;;10.45;94.15;100136.50;5034154;28;20206;-78
2022/05/31 04:52:56;;;;;;;329.23;310.65;;;10.30;99.90;;;10.53;94.15;100143.56;5033204;28;20203;-80
2022/05/31 04:55:24;;;;;;;322.13;305.00;;;10.30;99.90;;;10.66;93.32;100154.19;5045607;28;20694;-79
2022/05/31 04:57:52;;;;;;;338.10;319.88;;;10.40;99.90;;;10.59;95.05;100155.94;5030344;28;20207;-81
2022/05/31 05:00:21;;;;;;;339.23;321.05;;;10.50;99.90;;;10.56;95.74;100162.09;5041417;28;20699;-80
2022/05/31 05:03:09;;;;;;;342.60;323.88;;;10.40;99.90;;;10.62;95.23;100171.81;5032668;28;20227;-78
2022/05/31 05:05:38;;;;;;;341.55;323.65;;;;;;;10.76;96.06;100191.28;5039801;28;20659;-78
2022/05/31 05:08:11;;;;;;;344.90;326.45;;;10.50;99.90;;;10.71;95.19;100177.16;5022100;28;20645;-78
2022/05/31 05:10:46;;;;;;;347.50;328.73;;;10.50;99.90;;;10.81;94.05;100178.06;5044857;28;20207;-79
2022/05/31 05:13:30;;;;;;;343.27;325.30;;;10.60;99.90;;;10.88;94.05;100185.16;5048587;28;20719;-78
2022/05/31 05:16:06;;;;;;;345.42;327.00;;;10.60;99.90;;;10.78;93.82;100171.00;5046454;28;20241;-79
2022/05/31 05:18:38;;;;;;;347.95;330.02;;;10.70;99.90;;;10.86;94.47;100178.97;5051085;28;20207;-78
2022/05/31 05:21:10;;;;;;;357.02;338.60;;;10.70;99.90;;;10.84;94.82;100184.25;5050301;28;20213;-76
2022/05/31 05:23:40;;;;;;;358.52;339.45;;;10.70;99.90;;;10.92;95.06;100196.63;4984313;28;20235;-77
2022/05/31 05:26:12;;;;;;;365.70;346.63;;;10.70;99.90;;;10.84;95.30;100197.47;5053366;28;20221;-78
2022/05/31 05:31:42;;;;;;;365.25;346.15;;;10.70;99.90;;;10.95;95.88;100200.16;5042396;28;20215;-76
2022/05/31 05:34:29;;;;;;;367.08;347.20;;;10.80;99.90;;;11.13;95.41;100224.06;5046261;28;20245;-77
2022/05/31 05:36:59;;;;;;;378.77;358.65;;;10.90;99.90;;;11.29;95.60;100245.28;5033492;28;20235;-80
2022/05/31 05:39:27;;;;;;;366.55;348.20;;;11.00;99.90;;;11.35;95.45;100247.94;5050394;28;20206;-77
2022/05/31 05:42:20;;;;;;;366.13;347.40;;;11.10;99.90;;;11.48;94.03;100241.78;5012988;28;20206;-82
2022/05/31 05:45:11;;;;;;;364.98;346.20;;;11.30;99.90;;;11.53;93.70;100237.38;5035076;28;20202;-79
2022/05/31 05:47:42;;;;;;;364.88;346.92;;;11.30;99.90;;;11.72;93.77;100247.16;5052044;28;20237;-77
2022/05/31 05:50:11;;;;;;;355.27;338.25;;;11.30;99.90;;;11.80;92.09;100234.84;5033590;28;20211;-77
2022/05/31 05:53:05;;;;;;;364.45;346.38;;;11.40;99.90;;;12.08;92.75;100254.28;5020535;28;20648;-78
2022/05/31 05:55:53;;;;;;;355.38;337.98;;;11.60;99.90;;;12.27;92.25;100249.84;5050188;28;20219;-77
2022/05/31 05:58:41;;;;;;;355.38;338.65;;;11.90;99.90;;;12.36;90.87;100239.25;5032706;28;20213;-77
2022/05/31 06:01:56;;;;;;;355.05;338.27;;;11.90;99.90;;;12.54;89.33;100209.16;5059148;28;20213;-77
2022/05/31 06:05:14;;;;;;;353.25;335.73;;;12.00;99.90;;;12.57;88.25;100197.66;5044315;28;20230;-78
2022/05/31 06:08:00;;;;;;;344.70;329.30;;;12.20;99.90;;;12.81;86.69;100177.22;5016977;28;20221;-77
2022/05/31 06:10:40;;;;;;;346.73;331.65;;;12.30;99.90;;;12.86;85.36;100158.63;5030027;28;20211;-76
2022/05/31 06:13:23;;;;;;;356.60;340.67;;;12.50;99.90;;;12.92;85.54;100150.63;5016637;28;20236;-78
2022/05/31 06:15:56;;;;;;;363.42;346.38;;;12.50;99.90;;;13.04;86.06;100157.69;5030859;28;20222;-78
2022/05/31 06:18:46;;;;;;;368.55;351.85;;;12.70;99.90;;;13.42;85.86;100189.34;5021471;28;20648;-77
2022/05/31 06:21:16;;;;;;;373.45;357.13;;;12.90;99.90;;;13.60;83.94;100178.59;5007245;28;20215;-79
2022/05/31 06:23:49;;;;;;;370.65;354.75;;;13.10;99.90;;;13.57;82.99;100151.16;5029378;28;20238;-78
2022/05/31 06:26:18;;;;;;;381.75;365.38;;;13.20;99.90;;;13.78;82.99;100141.25;5038168;28;20219;-78
2022/05/31 06:28:56;;;;;;;363.52;348.38;;;13.30;99.90;;;13.96;84.51;100166.78;5028699;28;20199;-77
2022/05/31 06:31:24;;;;;;;362.60;347.40;;;13.50;99.90;;;13.94;83.01;100138.44;5043812;28;20214;-79
2022/05/31 06:33:53;;;;;;;372.95;356.98;;;13.60;99.90;;;13.97;82.44;100127.78;5046241;28;20229;-78
2022/05/31 06:36:26;;;;;;;361.17;346.23;;;13.70;99.90;;;13.75;81.28;100082.81;5029413;28;20234;-77
2022/05/31 06:38:54;;;;;;;361.05;346.50;;;13.70;99.90;;;14.06;81.55;100104.63;5046208;28;20214;-77
2022/05/31 06:41:22;;;;;;;337.98;324.38;;;13.70;99.90;;;13.97;82.35;100099.41;5038439;28;20237;-77
2022/05/31 06:44:14;;;;;;;343.90;330.13;;;13.90;99.90;;;13.91;83.45;100098.59;5053107;28;20226;-77
2022/05/31 06:47:01;;;;;;;354.52;340.38;;;13.90;99.90;;;14.45;82.47;100123.78;5053648;28;20207;-76
2022/05/31 06:49:58;;;;;;;347.33;333.25;;;14.40;99.90;;;14.70;81.56;100114.59;5004172;28;20199;-76
2022/05/31 06:59:08;;;;;;;348.52;334.67;;;14.70;99.90;;;15.15;82.02;100111.31;5057013;28;20203;-77
2022/05/31 07:01:37;;;;;;;349.00;334.85;;;14.90;99.90;;;15.35;81.70;100103.91;5046421;28;20206;-77
2022/05/31 07:04:06;;;;;;;347.55;333.38;;;15.10;99.90;;;15.47;79.83;100089.50;5045715;28;20223;-76
2022/05/31 07:06:34;;;;;;;373.08;358.25;;;15.40;99.90;;;15.70;78.31;100057.19;5043196;28;20211;-77
2022/05/31 07:09:22;;;;;;;376.40;361.20;;;15.60;99.90;;;15.67;78.37;100035.00;5053734;28;20211;-77
2022/05/31 07:11:51;;;;;;;367.35;352.40;;;15.70;99.90;;;15.47;75.80;99970.47;5041819;28;20224;-80
2022/05/31 07:14:37;;;;;;;364.25;349.55;;;15.60;99.90;;;15.37;77.09;99963.53;5038002;28;20703;-76
2022/05/31 07:17:26;;;;;;;395.83;379.75;;;15.60;99.90;;;15.44;75.99;99949.22;5051720;28;20229;-78
2022/05/31 07:19:58;;;;;;;423.75;406.38;;;15.60;99.90;;;15.83;74.23;99920.97;5035950;28;20209;-77
2022/05/31 07:22:36;;;;;;;430.48;411.80;;;15.90;99.90;;;16.41;74.19;99962.38;5020384;28;20214;-77
2022/05/31 07:25:30;;;;;;;405.77;387.85;;;16.10;99.90;;;16.19;76.08;99940.63;5028647;28;20215;-80
2022/05/31 07:28:05;;;;;;;413.40;395.00;;;16.40;99.90;;;15.98;74.58;99906.44;5051886;28;20209;-77
2022/05/31 07:30:34;;;;;;;449.63;429.70;;;16.50;99.90;;;16.42;74.48;99937.47;5045104;28;20209;-79
2022/05/31 07:33:07;;;;;;;463.05;442.92;;;16.80;99.90;;;16.21;74.06;99900.59;5044909;28;20594;-77
2022/05/31 07:35:59;;;;;;;489.27;467.08;;;16.90;99.90;;;16.57;73.84;99923.75;5022887;28;20207;-80
2022/05/31 07:38:28;;;;;;;492.85;470.70;;;17.30;99.90;;;17.10;72.55;99926.09;5054063;28;20237;-81
2022/05/31 07:40:56;;;;;;;478.20;456.88;;;17.30;99.90;;;16.79;72.35;99873.41;5032343;28;20203;-78
2022/05/31 07:43:24;;;;;;;469.38;448.63;;;17.80;99.90;;;17.10;73.29;99902.03;5038419;28;20231;-77
2022/05/31 07:46:05;;;;;;;479.25;456.58;;;17.90;99.90;;;17.24;72.92;99900.75;5036344;28;20203;-77
2022/05/31 07:48:35;;;;;;;474.23;452.38;;;18.10;99.90;;;16.62;73.13;99828.41;5033147;28;20211;-79
2022/05/31 07:51:17;;;;;;;448.40;429.17;;;18.00;99.90;;;15.88;73.71;99742.22;5040350;28;20202;-79
2022/05/31 07:54:13;;;;;;;484.58;463.65;;;17.40;99.90;;;17.01;72.41;99849.75;5028994;28;20230;-77
2022/05/31 07:57:06;;;;;;;458.52;438.40;;;17.60;99.90;;;16.45;73.72;99787.94;5010144;28;20230;-77
2022/05/31 07:59:54;;;;;;;479.42;457.98;;;17.50;99.90;;;16.88;71.96;99808.22;5033936;28;20195;-77
2022/05/31 08:02:44;;;;;;;475.30;454.35;;;18.20;99.90;;;18.15;70.28;99872.31;5045352;28;20210;-79
2022/05/31 08:05:13;;;;;;;447.35;427.45;;;18.20;99.90;;;18.02;68.73;99788.00;5053793;28;20205;-77
2022/05/31 08:07:41;;;;;;;461.50;440.88;;;18.50;99.90;;;17.85;69.88;99784.06;5044596;28;20214;-76
2022/05/31 08:10:11;;;;;;;469.77;448.88;;;18.70;99.90;;;17.51;70.66;99753.91;5041539;28;20199;-77
2022/05/31 08:12:39;;;;;;;454.02;433.67;;;18.50;99.90;;;17.64;70.13;99751.72;5028820;28;20210;-77
2022/05/31 08:15:08;;;;;;;473.85;451.83;;;18.40;99.90;;;17.56;69.88;99730.56;5014679;28;20239;-80
2022/05/31 08:17:37;;;;;;;521.67;497.50;;;18.50;99.90;;;19.08;70.44;99880.94;5039007;28;20226;-82
2022/05/31 08:20:06;;;;;;;535.55;510.40;;;19.10;99.90;;;19.01;67.25;99720.41;5023886;28;20204;-78
2022/05/31 08:22:35;;;;;;;523.13;498.92;;;19.60;99.90;;;18.52;67.89;99671.25;5049023;28;20206;-79
2022/05/31 08:25:04;;;;;;;521.17;495.92;;;19.80;99.90;;;18.39;68.76;99680.66;5042749;28;20238;-79
2022/05/31 08:27:34;;;;;;;531.38;506.20;;;19.80;99.90;;;19.32;68.26;99757.66;5037598;28;20210;-78
2022/05/31 08:30:05;;;;;;;508.95;484.55;;;20.10;99.90;;;19.10;67.94;99710.22;5045726;28;20206;-79
2022/05/31 08:32:36;;;;;;;500.83;476.95;;;20.50;99.90;;;18.49;70.07;99666.88;5055773;28;20213;-78
2022/05/31 08:35:06;;;;;;;513.65;487.58;;;20.50;99.90;;;19.06;68.36;99710.41;5041104;28;20235;-79
2022/05/31 08:37:36;;;;;;;539.75;513.42;;;20.80;99.90;;;18.89;66.13;99621.75;5048130;28;20241;-78
2022/05/31 08:40:05;;;;;;;630.55;598.70;;;21.20;99.90;;;20.02;66.34;99742.44;5046772;28;20647;-83
2022/05/31 08:42:57;;;;;;;634.97;602.67;;;21.70;99.90;;;19.05;66.64;99588.94;5026634;28;20203;-82
2022/05/31 08:45:52;;;;;;;660.17;626.30;;;21.60;99.90;;;19.07;66.27;99592.44;5052103;28;20215;-77
2022/05/31 08:48:43;;;;;;;624.70;591.80;;;21.50;99.90;;;18.66;67.04;99544.94;5047103;28;20572;-77
2022/05/31 08:57:08;;;;;;;624.25;591.90;;;22.10;99.90;;;18.43;68.78;99502.94;5044602;28;20202;-77
2022/05/31 08:59:57;;;;;;;596.70;566.33;;;20.80;99.90;;;18.15;68.98;99495.91;5022484;28;20202;-80
2022/05/31 09:02:32;;;;;;;600.42;569.20;;;20.00;99.90;;;18.37;68.47;99511.19;5039418;28;20209;-77
2022/05/31 09:05:58;;;;;;;641.55;608.28;;;20.00;99.90;;;20.55;66.05;99687.47;5037019;28;20218;-77
2022/05/31 09:08:50;;;;;;;617.85;586.00;;;21.00;99.90;;;19.56;66.02;99547.63;5025020;28;20211;-78
2022/05/31 09:11:31;;;;;;;605.08;573.83;;;21.70;99.90;;;19.03;66.18;99482.75;5045043;28;20202;-77
2022/05/31 09:14:23;;;;;;;602.33;571.33;;;21.00;99.90;;;19.04;68.97;99522.88;5052597;28;20602;-77
2022/05/31 09:17:03;;;;;;;632.22;599.75;;;20.40;99.90;;;20.69;65.98;99675.16;5064095;28;20202;-76
2022/05/31 09:19:52;;;;;;;605.15;574.03;;;21.00;99.90;;;18.93;65.50;99422.44;5023086;28;20214;-77
2022/05/31 09:22:25;;;;;;;618.33;586.80;;;20.80;99.90;;;19.28;65.77;99485.28;5042485;28;20206;-77
2022/05/31 09:24:53;;;;;;;588.33;557.83;;;20.40;99.90;;;20.19;65.13;99569.06;5031329;28;20586;-77
2022/05/31 09:27:47;;;;;;;580.88;550.78;;;21.10;99.90;;;19.47;62.99;99425.47;5016817;28;20593;-77
2022/05/31 09:30:24;;;;;;;617.55;585.70;;;21.10;99.90;;;20.64;63.57;99569.72;5036957;28;20202;-80
2022/05/31 09:33:22;;;;;;;707.63;669.35;;;22.40;99.90;;;21.99;61.29;99578.41;5041911;28;20207;-79
2022/05/31 09:36:03;;;;;;;636.17;602.63;;;22.70;99.90;;;20.90;63.92;99463.72;5033663;28;20212;-77
2022/05/31 09:39:35;;;;;;;586.10;555.40;;;22.80;99.90;;;20.80;66.38;99534.09;5026759;28;20225;-78
2022/05/31 09:42:38;;;;;;;644.55;609.95;;;21.60;99.90;;;21.59;63.28;99546.41;5038369;28;20197;-77
2022/05/31 09:45:17;;;;;;;683.40;645.00;;;22.80;99.90;;;22.18;60.61;99534.44;5017878;28;20229;-78
2022/05/31 09:47:45;;;;;;;620.70;586.67;;;23.70;99.90;;;20.91;62.94;99367.84;5024394;28;20197;-77
2022/05/31 09:50:25;;;;;;;620.88;585.50;;;23.70;99.90;;;21.02;63.51;99406.69;5044600;28;20203;-80
2022/05/31 09:52:57;;;;;;;608.92;574.78;;;23.40;99.90;;;21.28;60.67;99380.34;5045415;28;20205;-77
2022/05/31 09:58:37;;;;;;;620.75;584.08;;;24.20;99.90;;;21.47;60.88;99356.91;5040989;28;20710;-81
2022/05/31 10:01:47;;;;;;;628.40;591.88;;;24.20;99.90;;;21.95;60.35;99393.78;5060040;28;20206;-77
2022/05/31 10:04:31;;;;;;;627.15;590.78;;;24.00;99.90;;;22.34;59.11;99393.47;5028729;28;20233;-78
2022/05/31 10:07:06;;;;;;;678.67;638.13;;;24.60;99.90;;;23.26;62.25;99521.25;5031183;28;20194;-77
2022/05/31 10:09:43;;;;;;;790.20;741.60;;;25.90;99.90;;;23.76;60.15;99482.38;5057114;28;20209;-79
2022/05/31 10:12:31;;;;;;;909.40;855.05;;;26.70;99.90;;;23.26;59.75;99374.72;5045863;28;20202;-78
2022/05/31 10:15:03;;;;;;;907.17;851.88;;;;;;;23.47;61.10;99405.84;5051646;28;20225;-81
2022/05/31 10:17:44;;;;;;;862.83;810.53;;;26.40;99.90;;;22.23;59.94;99209.22;5028825;28;20198;-80
2022/05/31 10:20:19;;;;;;;902.22;847.45;;;26.60;99.90;;;22.65;59.65;99273.19;5038488;28;20210;-79
2022/05/31 10:23:03;;;;;;;1017.80;956.40;;;27.30;99.90;;;23.37;58.77;99285.91;5041431;28;20219;-79
2022/05/31 10:25:56;;;;;;;730.80;684.97;;;25.70;98.80;;;21.32;61.14;99115.69;5051928;28;20205;-78
2022/05/31 10:29:07;;;;;;;780.95;732.38;;;25.50;99.90;;;22.52;62.06;99297.28;5061439;28;20213;-80
2022/05/31 10:31:54;;;;;;;866.00;812.35;;;26.70;99.90;;;23.35;56.74;99223.09;5042924;28;20222;-84
2022/05/31 10:34:44;;;;;;;869.72;816.00;;;27.20;99.90;;;22.89;59.04;99201.66;5030091;28;20234;-78
2022/05/31 10:37:32;;;;;;;926.72;869.85;;;27.40;99.20;;;22.43;59.46;99144.28;5038685;28;20217;-78
2022/05/31 10:40:11;;;;;;;922.70;864.80;;;27.60;96.00;;;23.28;58.40;99182.16;5046512;28;20226;-79
2022/05/31 10:42:45;;;;;;;852.30;799.63;;;26.20;97.80;;;23.38;60.03;99254.41;5043547;28;20201;-78
2022/05/31 10:45:28;;;;;;;878.47;823.85;;;26.80;98.50;;;23.72;59.13;99259.50;5024161;28;20205;-78
2022/05/31 10:47:58;;;;;;;864.67;811.85;;;26.10;95.30;;;23.34;59.07;99183.59;5040642;28;20209;-81
2022/05/31 10:50:55;;;;;;;839.78;787.65;;;25.40;96.40;;;22.75;59.51;99117.19;5024755;28;20213;-79
2022/05/31 10:54:12;;;;;;;813.78;763.50;;;24.90;97.30;;;23.39;58.78;99197.66;5051831;28;20714;-80
2022/05/31 10:57:12;;;;;;;776.00;727.95;;;25.40;97.40;;;23.44;59.31;99171.28;5058110;28;20659;-82
2022/05/31 11:00:21;;;;;;;805.85;756.30;;;26.10;99.90;;;24.07;58.70;99248.25;4994180;28;20229;-81
2022/05/31 11:03:02;;;;;;;748.17;701.42;;;25.80;94.60;;;23.33;55.65;99063.16;5053873;28;20209;-79
2022/05/31 11:06:01;;;;;;;693.75;651.15;;;25.50;95.80;;;23.40;56.07;99079.81;5054233;28;20210;-81